createdAt,value
2023-04-02T00:00:59.940Z,19.93
2023-04-02T00:03:46.049Z,19.93
2023-04-02T00:06:34.364Z,19.89
2023-04-02T00:09:31.302Z,19.83
2023-04-02T00:12:16.633Z,19.81
2023-04-02T00:14:59.200Z,19.74
2023-04-02T00:17:29.398Z,19.72
2023-04-02T00:20:07.689Z,19.72
2023-04-02T00:22:46.567Z,19.74
2023-04-02T00:25:16.925Z,19.71
2023-04-02T00:27:47.907Z,19.78
2023-04-02T00:30:18.459Z,19.74
2023-04-02T00:32:49.407Z,19.74
2023-04-02T00:35:28.500Z,19.71
2023-04-02T00:37:59.173Z,19.61
2023-04-02T00:40:32.446Z,19.65
2023-04-02T00:43:05.947Z,19.65
2023-04-02T00:45:40.018Z,19.62
2023-04-02T00:49:00.882Z,19.66
2023-04-02T00:51:39.006Z,19.78
2023-04-02T00:54:20.033Z,19.85
2023-04-02T00:56:53.829Z,19.81
2023-04-02T00:59:35.930Z,19.76
2023-04-02T01:02:21.034Z,19.65
2023-04-02T01:05:05.449Z,19.59
2023-04-02T01:07:57.158Z,19.54
2023-04-02T01:11:03.904Z,19.51
2023-04-02T01:13:58.914Z,19.51
2023-04-02T01:16:31.851Z,19.44
2023-04-02T01:19:43.568Z,19.39
2023-04-02T01:22:59.753Z,19.35
2023-04-02T01:25:38.179Z,19.34
2023-04-02T01:28:54.206Z,19.34
2023-04-02T01:31:25.015Z,19.28
2023-04-02T01:33:55.375Z,19.23
2023-04-02T01:37:02.107Z,19.17
2023-04-02T01:40:01.828Z,19.01
2023-04-02T01:42:57.822Z,18.99
2023-04-02T01:45:28.642Z,19.11
2023-04-02T01:47:58.981Z,19.08
2023-04-02T01:50:34.532Z,18.97
2023-04-02T01:53:09.760Z,19.03
2023-04-02T01:56:01.472Z,19.03
2023-04-02T01:58:34.709Z,19.01
2023-04-02T02:01:23.053Z,19.13
2023-04-02T02:03:55.698Z,19.11
2023-04-02T02:06:26.191Z,18.97
2023-04-02T02:09:04.980Z,18.87
2023-04-02T02:11:37.720Z,18.79
2023-04-02T02:14:16.007Z,18.90
2023-04-02T02:16:48.665Z,18.93
2023-04-02T02:19:39.968Z,19.03
2023-04-02T02:22:22.769Z,19.11
2023-04-02T02:24:52.605Z,19.08
2023-04-02T02:27:25.486Z,18.83
2023-04-02T02:30:12.017Z,18.74
2023-04-02T02:32:55.428Z,18.79
2023-04-02T02:35:54.594Z,18.79
2023-04-02T02:38:54.381Z,18.76
2023-04-02T02:42:03.273Z,18.72
2023-04-02T02:44:45.219Z,18.66
2023-04-02T02:47:40.787Z,18.63
2023-04-02T02:50:25.702Z,18.55
2023-04-02T02:53:00.878Z,18.42
2023-04-02T02:55:38.930Z,18.35
2023-04-02T02:58:28.447Z,18.05
2023-04-02T03:01:31.327Z,18.16
2023-04-02T03:04:05.980Z,18.21
2023-04-02T03:06:37.906Z,18.25
2023-04-02T03:09:33.139Z,18.12
2023-04-02T03:12:28.790Z,18.12
2023-04-02T03:14:58.957Z,18.16
2023-04-02T03:17:34.261Z,18.13
2023-04-02T03:20:15.838Z,18.12
2023-04-02T03:22:57.999Z,18.06
2023-04-02T03:26:06.217Z,18.06
2023-04-02T03:28:44.345Z,18.04
2023-04-02T03:31:27.643Z,18.01
2023-04-02T03:34:15.566Z,17.98
2023-04-02T03:36:54.674Z,17.92
2023-04-02T03:39:55.721Z,17.87
2023-04-02T03:42:28.352Z,17.87
2023-04-02T03:45:32.730Z,17.81
2023-04-02T03:48:08.854Z,17.82
2023-04-02T03:50:57.813Z,17.81
2023-04-02T03:53:30.632Z,17.78
2023-04-02T03:56:03.512Z,17.77
2023-04-02T03:58:53.576Z,17.78
2023-04-02T04:01:33.060Z,17.73
2023-04-02T04:04:15.917Z,17.71
2023-04-02T04:06:48.762Z,17.69
2023-04-02T04:09:35.514Z,17.64
2023-04-02T04:12:34.511Z,17.67
2023-04-02T04:15:16.904Z,17.67
2023-04-02T04:18:03.470Z,17.43
2023-04-02T04:20:49.243Z,17.44
2023-04-02T04:23:37.225Z,17.47
2023-04-02T04:26:25.830Z,17.47
2023-04-02T04:29:33.922Z,17.51
2023-04-02T04:32:51.763Z,17.63
2023-04-02T04:35:32.662Z,17.53
2023-04-02T04:38:08.919Z,17.34
2023-04-02T04:40:55.163Z,17.20
2023-04-02T04:43:56.515Z,17.30
2023-04-02T04:46:41.928Z,17.46
2023-04-02T04:49:43.249Z,17.27
2023-04-02T04:52:46.076Z,16.93
2023-04-02T04:55:36.702Z,16.88
2023-04-02T04:58:49.970Z,16.90
2023-04-02T05:01:49.616Z,16.90
2023-04-02T05:04:41.067Z,16.69
2023-04-02T05:07:18.863Z,16.88
2023-04-02T05:09:57.988Z,16.83
2023-04-02T05:12:43.841Z,16.93
2023-04-02T05:15:50.368Z,17.05
2023-04-02T05:19:01.188Z,17.06
2023-04-02T05:21:46.481Z,17.02
2023-04-02T05:24:40.568Z,17.02
2023-04-02T05:27:42.376Z,17.00
2023-04-02T05:30:54.126Z,16.98
2023-04-02T05:33:30.013Z,16.95
2023-04-02T05:36:10.087Z,16.96
2023-04-02T05:38:50.382Z,16.96
2023-04-02T05:41:41.205Z,16.81
2023-04-02T05:44:34.091Z,16.90
2023-04-02T05:47:32.245Z,16.90
2023-04-02T05:50:16.083Z,16.88
2023-04-02T05:52:58.718Z,16.85
2023-04-02T05:55:44.931Z,16.83
2023-04-02T05:58:36.952Z,16.83
2023-04-02T06:01:30.795Z,16.85
2023-04-02T06:04:22.758Z,16.82
2023-04-02T06:07:05.737Z,16.72
2023-04-02T06:10:08.112Z,16.69
2023-04-02T06:12:45.790Z,16.71
2023-04-02T06:15:24.575Z,16.69
2023-04-02T06:18:07.024Z,16.71
2023-04-02T06:20:38.214Z,16.62
2023-04-02T06:23:47.831Z,16.64
2023-04-02T06:26:39.402Z,16.65
2023-04-02T06:29:28.133Z,16.67
2023-04-02T06:32:03.514Z,16.65
2023-04-02T06:34:34.805Z,16.62
2023-04-02T06:37:30.961Z,16.42
2023-04-02T06:40:22.818Z,16.54
2023-04-02T06:43:00.826Z,16.59
2023-04-02T06:45:59.113Z,16.61
2023-04-02T06:48:37.124Z,16.58
2023-04-02T06:51:08.893Z,16.55
2023-04-02T06:53:44.426Z,16.42
2023-04-02T06:57:02.281Z,16.25
2023-04-02T06:59:39.206Z,16.18
2023-04-02T07:02:32.082Z,16.34
2023-04-02T07:05:10.322Z,16.37
2023-04-02T07:07:45.610Z,16.48
2023-04-02T07:10:16.726Z,16.48
2023-04-02T07:12:46.733Z,16.51
2023-04-02T07:15:25.291Z,16.51
2023-04-02T07:18:00.467Z,16.48
2023-04-02T07:20:40.120Z,16.48
2023-04-02T07:23:14.818Z,16.45
2023-04-02T07:25:46.075Z,16.47
2023-04-02T07:28:16.926Z,16.48
2023-04-02T07:30:47.925Z,16.42
2023-04-02T07:33:20.720Z,16.31
2023-04-02T07:35:51.616Z,16.38
2023-04-02T07:38:22.002Z,16.28
2023-04-02T07:40:52.248Z,16.30
2023-04-02T07:43:23.098Z,16.34
2023-04-02T07:45:53.804Z,16.24
2023-04-02T07:48:24.562Z,16.03
2023-04-02T07:50:54.744Z,16.14
2023-04-02T07:53:33.778Z,16.24
2023-04-02T07:56:05.633Z,16.22
2023-04-02T07:58:36.517Z,16.25
2023-04-02T08:01:06.735Z,16.21
2023-04-02T08:03:36.944Z,16.00
2023-04-02T08:06:07.944Z,15.83
2023-04-02T08:08:38.269Z,15.80
2023-04-02T08:11:08.864Z,15.87
2023-04-02T08:13:40.078Z,15.87
2023-04-02T08:16:11.289Z,15.69
2023-04-02T08:18:41.860Z,15.60
2023-04-02T08:21:14.159Z,15.74
2023-04-02T08:23:45.526Z,15.80
2023-04-02T08:26:20.052Z,15.69
2023-04-02T08:28:50.346Z,15.66
2023-04-02T08:31:20.550Z,15.80
2023-04-02T08:33:50.726Z,15.80
2023-04-02T08:36:21.695Z,15.53
2023-04-02T08:38:52.449Z,15.50
2023-04-02T08:41:28.923Z,15.56
2023-04-02T08:44:25.343Z,15.79
2023-04-02T08:47:04.552Z,15.69
2023-04-02T08:49:38.900Z,15.74
2023-04-02T08:52:21.652Z,15.86
2023-04-02T08:54:52.311Z,15.94
2023-04-02T08:57:41.044Z,15.87
2023-04-02T09:00:17.586Z,15.69
2023-04-02T09:02:59.308Z,15.80
2023-04-02T09:05:35.973Z,15.89
2023-04-02T09:08:09.129Z,15.90
2023-04-02T09:11:12.002Z,15.91
2023-04-02T09:13:47.843Z,15.94
2023-04-02T09:16:23.710Z,16.00
2023-04-02T09:18:55.653Z,15.96
2023-04-02T09:22:05.357Z,15.85
2023-04-02T09:24:36.637Z,15.67
2023-04-02T09:27:16.326Z,15.80
2023-04-02T09:29:48.650Z,15.90
2023-04-02T09:32:21.616Z,15.89
2023-04-02T09:34:52.251Z,15.83
2023-04-02T09:37:27.155Z,15.86
2023-04-02T09:40:18.238Z,15.87
2023-04-02T09:42:48.588Z,15.85
2023-04-02T09:45:26.651Z,15.90
2023-04-02T09:47:59.213Z,15.99
2023-04-02T09:50:33.303Z,15.99
2023-04-02T09:53:29.077Z,15.96
2023-04-02T09:56:25.656Z,16.01
2023-04-02T09:59:07.365Z,16.13
2023-04-02T10:01:43.796Z,16.17
2023-04-02T10:04:32.643Z,16.04
2023-04-02T10:07:02.957Z,16.04
2023-04-02T10:09:38.481Z,16.21
2023-04-02T10:12:13.822Z,16.31
2023-04-02T10:14:48.642Z,16.21
2023-04-02T10:17:30.441Z,16.08
2023-04-02T10:20:25.050Z,16.03
2023-04-02T10:22:55.227Z,16.04
2023-04-02T10:25:29.511Z,16.13
2023-04-02T10:28:23.894Z,16.37
2023-04-02T10:31:07.678Z,16.54
2023-04-02T10:33:39.673Z,16.47
2023-04-02T10:36:46.437Z,16.48
2023-04-02T10:39:47.524Z,16.61
2023-04-02T10:42:32.464Z,16.78
2023-04-02T10:45:23.120Z,16.65
2023-04-02T10:48:02.794Z,16.82
2023-04-02T10:50:46.964Z,17.08
2023-04-02T10:53:20.609Z,17.13
2023-04-02T10:55:59.718Z,17.23
2023-04-02T10:58:32.990Z,17.29
2023-04-02T11:01:09.565Z,17.46
2023-04-02T11:03:45.928Z,17.54
2023-04-02T11:06:51.779Z,17.57
2023-04-02T11:09:29.454Z,17.63
2023-04-02T11:12:02.578Z,17.78
2023-04-02T11:14:34.719Z,17.70
2023-04-02T11:17:05.246Z,17.71
2023-04-02T11:19:37.674Z,17.54
2023-04-02T11:22:27.173Z,17.82
2023-04-02T11:24:59.916Z,18.00
2023-04-02T11:27:33.159Z,18.09
2023-04-02T11:30:06.454Z,18.16
2023-04-02T11:33:03.896Z,18.01
2023-04-02T11:35:34.302Z,17.85
2023-04-02T11:38:21.318Z,17.82
2023-04-02T11:40:59.771Z,17.90
2023-04-02T11:43:36.566Z,17.90
2023-04-02T11:46:07.996Z,18.00
2023-04-02T11:48:38.563Z,17.94
2023-04-02T11:51:37.799Z,18.13
2023-04-02T11:54:29.771Z,18.43
2023-04-02T11:57:23.288Z,18.73
2023-04-02T12:00:20.771Z,18.62
2023-04-02T12:03:29.588Z,18.72
2023-04-02T12:06:14.574Z,18.80
2023-04-02T12:09:09.281Z,18.84
2023-04-02T12:11:42.034Z,18.72
2023-04-02T12:14:39.893Z,18.73
2023-04-02T12:17:37.864Z,18.80
2023-04-02T12:20:11.265Z,18.79
2023-04-02T12:22:48.222Z,18.84
2023-04-02T12:25:31.197Z,19.20
2023-04-02T12:28:15.648Z,19.55
2023-04-02T12:30:47.466Z,19.44
2023-04-02T12:33:38.429Z,19.20
2023-04-02T12:36:21.253Z,19.42
2023-04-02T12:38:57.331Z,19.68
2023-04-02T12:41:31.498Z,19.90
2023-04-02T12:44:07.670Z,20.13
2023-04-02T12:46:38.082Z,20.23
2023-04-02T12:49:28.385Z,20.54
2023-04-02T12:51:59.556Z,20.70
2023-04-02T12:54:30.660Z,20.77
2023-04-02T12:57:32.531Z,20.81
2023-04-02T13:00:24.140Z,20.92
2023-04-02T13:03:04.606Z,20.85
2023-04-02T13:05:43.776Z,21.21
2023-04-02T13:08:42.423Z,21.41
2023-04-02T13:11:12.958Z,21.25
2023-04-02T13:13:45.528Z,21.35
2023-04-02T13:16:21.679Z,21.52
2023-04-02T13:18:53.233Z,21.22
2023-04-02T13:21:30.492Z,21.29
2023-04-02T13:24:00.656Z,21.46
2023-04-02T13:26:31.384Z,21.62
2023-04-02T13:29:28.758Z,21.67
2023-04-02T13:32:04.607Z,21.53
2023-04-02T13:34:35.111Z,21.56
2023-04-02T13:37:05.246Z,21.75
2023-04-02T13:39:35.562Z,21.94
2023-04-02T13:42:07.813Z,22.07
2023-04-02T13:44:41.452Z,22.22
2023-04-02T13:47:16.141Z,22.24
2023-04-02T13:49:46.287Z,22.35
2023-04-02T13:52:17.591Z,22.48
2023-04-02T13:54:50.601Z,22.61
2023-04-02T13:57:21.013Z,22.82
2023-04-02T13:59:51.183Z,22.91
2023-04-02T14:02:25.973Z,23.10
2023-04-02T14:05:30.458Z,23.42
2023-04-02T14:08:42.087Z,23.58
2023-04-02T14:11:42.561Z,23.98
2023-04-02T14:14:21.137Z,24.38
2023-04-02T14:17:07.879Z,24.79
2023-04-02T14:19:48.218Z,23.90
2023-04-02T14:22:57.781Z,24.60
2023-04-02T14:25:45.448Z,25.00
2023-04-02T14:28:44.276Z,25.27
2023-04-02T14:31:47.473Z,25.03
2023-04-02T14:34:44.799Z,24.65
2023-04-02T14:37:18.357Z,25.04
2023-04-02T14:40:23.159Z,25.35
2023-04-02T14:42:53.355Z,25.92
2023-04-02T14:45:45.585Z,26.37
2023-04-02T14:48:46.012Z,26.12
2023-04-02T14:51:34.544Z,25.99
2023-04-02T14:54:22.540Z,25.77
2023-04-02T14:56:57.102Z,26.44
2023-04-02T14:59:41.602Z,26.69
2023-04-02T15:02:23.847Z,25.04
2023-04-02T15:05:29.335Z,24.63
2023-04-02T15:08:10.469Z,24.15
2023-04-02T15:11:08.228Z,23.73
2023-04-02T15:13:43.967Z,23.94
2023-04-02T15:16:23.779Z,24.49
2023-04-02T15:18:57.785Z,25.06
2023-04-02T15:24:37.207Z,26.12
2023-04-02T15:27:50.417Z,26.73
2023-04-02T15:30:30.625Z,26.86
2023-04-02T15:33:29.499Z,27.45
2023-04-02T15:36:12.209Z,26.76
2023-04-02T15:39:12.260Z,27.04
2023-04-02T15:42:12.298Z,26.37
2023-04-02T15:44:54.278Z,26.74
2023-04-02T15:47:36.879Z,27.15
2023-04-02T15:50:16.164Z,26.71
2023-04-02T15:53:02.596Z,26.51
2023-04-02T15:55:47.895Z,25.50
2023-04-02T15:58:26.879Z,25.48
2023-04-02T16:01:15.358Z,25.04
2023-04-02T16:04:31.871Z,25.64
2023-04-02T16:07:22.848Z,25.98
2023-04-02T16:10:06.377Z,26.67
2023-04-02T16:12:38.344Z,26.73
2023-04-02T16:15:26.148Z,26.94
2023-04-02T16:18:26.184Z,27.66
2023-04-02T16:20:58.438Z,26.67
2023-04-02T16:23:40.242Z,26.18
2023-04-02T16:26:31.452Z,26.47
2023-04-02T16:29:27.160Z,26.32
2023-04-02T16:32:21.158Z,26.03
2023-04-02T16:35:23.967Z,26.77
2023-04-02T16:38:22.021Z,27.15
2023-04-02T16:41:35.071Z,27.46
2023-04-02T16:44:17.654Z,27.27
2023-04-02T16:47:03.639Z,28.36
2023-04-02T16:49:40.115Z,28.28
2023-04-02T16:52:28.486Z,27.94
2023-04-02T16:55:06.886Z,27.81
2023-04-02T16:58:04.276Z,27.32
2023-04-02T17:00:46.824Z,27.48
2023-04-02T17:03:45.254Z,28.13
2023-04-02T17:06:27.760Z,28.25
2023-04-02T17:09:12.672Z,28.21
2023-04-02T17:11:47.263Z,28.09
2023-04-02T17:14:35.471Z,28.45
2023-04-02T17:17:07.125Z,29.37
2023-04-02T17:19:37.268Z,28.88
2023-04-02T17:22:07.875Z,28.67
2023-04-02T17:24:43.177Z,28.62
2023-04-02T17:27:47.474Z,28.92
2023-04-02T17:30:38.994Z,28.48
2023-04-02T17:33:18.041Z,29.42
2023-04-02T17:36:02.245Z,27.79
2023-04-02T17:39:05.799Z,29.27
2023-04-02T17:41:50.097Z,30.52
2023-04-02T17:44:50.084Z,30.31
2023-04-02T17:47:27.155Z,30.29
2023-04-02T17:50:15.706Z,30.56
2023-04-02T17:53:00.320Z,31.23
2023-04-02T17:55:48.564Z,31.53
2023-04-02T17:58:30.934Z,31.75
2023-04-02T18:01:24.858Z,32.04
2023-04-02T18:04:16.335Z,32.86
2023-04-02T18:06:52.363Z,32.77
2023-04-02T18:09:51.120Z,33.04
2023-04-02T18:12:36.224Z,33.33
2023-04-02T18:15:30.761Z,34.27
2023-04-02T18:18:44.697Z,32.93
2023-04-02T18:21:27.444Z,31.63
2023-04-02T18:24:18.628Z,30.11
2023-04-02T18:27:15.602Z,29.06
2023-04-02T18:29:58.708Z,28.18
2023-04-02T18:32:51.865Z,30.01
2023-04-02T18:35:40.457Z,30.36
2023-04-02T18:38:48.837Z,31.07
2023-04-02T18:41:49.284Z,33.54
2023-04-02T18:44:37.599Z,33.61
2023-04-02T18:47:27.869Z,31.96
2023-04-02T18:50:19.902Z,31.74
2023-04-02T18:52:52.017Z,31.64
2023-04-02T18:55:28.090Z,31.67
2023-04-02T18:58:14.666Z,29.20
2023-04-02T19:00:47.144Z,32.11
2023-04-02T19:03:21.224Z,31.78
2023-04-02T19:06:17.556Z,30.95
2023-04-02T19:09:00.193Z,32.39
2023-04-02T19:11:30.670Z,30.32
2023-04-02T19:14:21.717Z,29.63
2023-04-02T19:17:06.397Z,30.52
2023-04-02T19:19:57.900Z,31.55
2023-04-02T19:23:06.466Z,31.91
2023-04-02T19:25:52.289Z,28.69
2023-04-02T19:28:38.393Z,27.74
2023-04-02T19:31:31.218Z,27.25
2023-04-02T19:34:24.656Z,27.12
2023-04-02T19:37:08.284Z,27.07
2023-04-02T19:39:57.058Z,26.74
2023-04-02T19:42:54.335Z,26.83
2023-04-02T19:45:37.455Z,26.92
2023-04-02T19:48:30.035Z,26.59
2023-04-02T19:51:01.326Z,26.42
2023-04-02T19:53:32.070Z,26.39
2023-04-02T19:56:03.376Z,26.59
2023-04-02T19:58:37.068Z,26.54
2023-04-02T20:01:08.214Z,26.25
2023-04-02T20:03:39.095Z,26.10
2023-04-02T20:06:10.447Z,26.01
2023-04-02T20:08:41.837Z,25.93
2023-04-02T20:11:13.099Z,25.77
2023-04-02T20:13:43.913Z,25.86
2023-04-02T20:16:15.558Z,25.64
2023-04-02T20:18:46.217Z,25.54
2023-04-02T20:21:18.399Z,25.51
2023-04-02T20:23:49.490Z,25.60
2023-04-02T20:26:20.223Z,25.42
2023-04-02T20:28:51.133Z,25.27
2023-04-02T20:31:22.156Z,25.19
2023-04-02T20:33:58.450Z,25.17
2023-04-02T20:36:29.573Z,25.10
2023-04-02T20:39:00.269Z,25.02
2023-04-02T20:41:31.017Z,24.97
2023-04-02T20:44:02.302Z,24.89
2023-04-02T20:46:36.882Z,24.86
2023-04-02T20:49:08.214Z,24.77
2023-04-02T20:51:38.891Z,24.68
2023-04-02T20:54:09.775Z,24.56
2023-04-02T20:56:41.533Z,24.55
2023-04-02T20:59:12.809Z,24.51
2023-04-02T21:01:45.413Z,24.47
2023-04-02T21:04:16.228Z,24.24
2023-04-02T21:06:50.665Z,24.21
2023-04-02T21:09:22.884Z,24.08
2023-04-02T21:11:53.453Z,23.91
2023-04-02T21:14:23.850Z,23.80
2023-04-02T21:16:54.189Z,23.70
2023-04-02T21:19:24.349Z,23.61
2023-04-02T21:21:56.669Z,23.51
2023-04-02T21:24:27.094Z,23.43
2023-04-02T21:26:57.195Z,23.36
2023-04-02T21:29:27.039Z,23.23
2023-04-02T21:31:58.479Z,23.09
2023-04-02T21:34:30.282Z,23.03
2023-04-02T21:37:00.866Z,22.92
2023-04-02T21:39:31.051Z,22.85
2023-04-02T21:42:01.432Z,22.79
2023-04-02T21:44:31.904Z,22.67
2023-04-02T21:47:03.268Z,22.62
2023-04-02T21:49:33.513Z,22.55
2023-04-02T21:52:03.697Z,22.48
2023-04-02T21:54:33.881Z,22.43
2023-04-02T21:57:06.477Z,22.35
2023-04-02T21:59:36.777Z,22.28
2023-04-02T22:02:08.011Z,22.20
2023-04-02T22:04:38.175Z,22.11
2023-04-02T22:07:07.785Z,22.13
2023-04-02T22:09:37.489Z,22.07
2023-04-02T22:12:09.305Z,21.98
2023-04-02T22:14:39.530Z,21.97
2023-04-02T22:17:10.018Z,21.90
2023-04-02T22:19:40.182Z,21.80
2023-04-02T22:22:10.057Z,21.79
2023-04-02T22:24:40.078Z,21.67
2023-04-02T22:27:10.241Z,21.66
2023-04-02T22:29:39.827Z,21.65
2023-04-02T22:32:09.645Z,21.60
2023-04-02T22:34:46.978Z,21.56
2023-04-02T22:37:17.802Z,21.52
2023-04-02T22:39:47.418Z,21.46
2023-04-02T22:42:17.843Z,21.41
2023-04-02T22:44:48.008Z,21.32
2023-04-02T22:47:18.392Z,21.28
2023-04-02T22:49:48.425Z,21.32
2023-04-02T22:52:18.509Z,21.21
2023-04-02T22:54:48.721Z,21.15
2023-04-02T22:57:18.870Z,21.11
2023-04-02T22:59:48.613Z,21.05
2023-04-02T23:02:18.488Z,21.04
2023-04-02T23:04:48.097Z,21.01
2023-04-02T23:07:19.174Z,21.02
2023-04-02T23:09:53.243Z,20.99
2023-04-02T23:12:24.728Z,20.95
2023-04-02T23:14:59.821Z,20.91
2023-04-02T23:17:31.428Z,20.91
2023-04-02T23:20:02.690Z,20.91
2023-04-02T23:22:34.425Z,20.94
2023-04-02T23:25:08.391Z,20.91
2023-04-02T23:27:39.392Z,20.87
2023-04-02T23:30:11.516Z,20.92
2023-04-02T23:32:43.433Z,20.87
2023-04-02T23:35:14.580Z,20.90
2023-04-02T23:37:47.562Z,20.83
2023-04-02T23:40:19.144Z,20.88
2023-04-02T23:42:49.482Z,20.92
2023-04-02T23:45:19.652Z,20.84
2023-04-02T23:47:49.477Z,20.83
2023-04-02T23:50:19.528Z,20.80
2023-04-02T23:52:49.818Z,20.81
2023-04-02T23:55:19.761Z,20.85
2023-04-02T23:57:49.710Z,20.64
